Omaha, Arkansas
Current Conditions -  °F | °C
As of 6:45 PM on Saturday 22 Nov 2014 (Local Time) from KBBG Reporting Station
Overcast Overcast  
Wind Chill: 52°   Ceiling: 7500
Heat Index: 52°   Visibility: 10mi
Dew Point: 50°   Wind: 16mph
Humidity: 94%   Direction: 150°SSE
Pressure: 29.92"   Gusts: NA
Location:  36.45°N, 93.19°W
Report Text: KBBG 230045Z 15014KT 10SM FEW041 BKN075 OVC090 11/10 A2992
Loading
Personal Weather Stations






























Interactive Weather Map New forecast layout! Learn more

10-Day Weather Forecast

Advertisements
Track Severe Weather on mobile